createdAt,value
2022-09-13T00:03:08.266Z,3.75
2022-09-13T00:08:11.021Z,4.43
2022-09-13T00:13:15.186Z,2.72
2022-09-13T00:18:19.293Z,4.93
2022-09-13T00:23:22.140Z,3.88
2022-09-13T00:28:24.877Z,5.88
2022-09-13T00:33:27.571Z,4.15
2022-09-13T00:38:30.272Z,10.60
2022-09-13T00:44:02.387Z,6.00
2022-09-13T00:49:21.712Z,4.63
2022-09-13T00:54:28.127Z,4.60
2022-09-13T00:59:39.497Z,7.45
2022-09-13T01:04:42.764Z,5.20
2022-09-13T01:09:47.091Z,2.97
2022-09-13T01:14:50.359Z,4.35
2022-09-13T01:19:53.106Z,4.03
2022-09-13T01:25:33.642Z,5.43
2022-09-13T01:30:56.233Z,7.43
2022-09-13T01:36:33.192Z,3.25
2022-09-13T01:41:50.726Z,5.30
2022-09-13T01:47:14.090Z,4.15
2022-09-13T01:52:44.715Z,6.65
2022-09-13T01:57:55.232Z,3.55
2022-09-13T02:03:47.295Z,3.60
2022-09-13T02:08:52.925Z,6.88
2022-09-13T02:19:09.680Z,3.45
2022-09-13T02:24:30.274Z,7.95
2022-09-13T02:29:34.015Z,9.95
2022-09-13T02:34:42.863Z,4.95
2022-09-13T02:39:50.320Z,11.82
2022-09-13T02:44:59.032Z,4.82
2022-09-13T02:50:26.604Z,7.72
2022-09-13T02:55:32.270Z,7.38
2022-09-13T03:00:35.573Z,6.65
2022-09-13T03:05:38.363Z,4.68
2022-09-13T03:11:03.987Z,9.57
2022-09-13T03:16:10.949Z,5.65
2022-09-13T03:21:35.559Z,5.65
2022-09-13T03:27:12.102Z,5.57
2022-09-13T03:32:19.744Z,4.03
2022-09-13T03:37:34.584Z,7.60
2022-09-13T03:42:58.626Z,4.90
2022-09-13T03:48:02.663Z,4.32
2022-09-13T03:53:08.996Z,9.13
2022-09-13T03:58:17.731Z,6.25
2022-09-13T04:03:23.696Z,3.28
2022-09-13T04:08:26.436Z,4.70
2022-09-13T04:13:29.784Z,4.82
2022-09-13T04:18:33.118Z,4.18
2022-09-13T04:23:35.755Z,5.55
2022-09-13T04:28:38.690Z,4.70
2022-09-13T04:33:41.606Z,5.93
2022-09-13T04:38:44.384Z,5.50
2022-09-13T04:43:51.146Z,4.32
2022-09-13T04:48:54.725Z,6.03
2022-09-13T04:53:57.685Z,5.95
2022-09-13T04:59:00.636Z,11.73
2022-09-13T05:04:04.388Z,3.40
2022-09-13T05:09:16.375Z,4.47
2022-09-13T05:14:19.055Z,2.47
2022-09-13T05:19:21.998Z,1.70
2022-09-13T05:24:24.710Z,4.15
2022-09-13T05:29:27.489Z,3.40
2022-09-13T05:34:32.130Z,3.55
2022-09-13T05:40:00.384Z,1.90
2022-09-13T05:44:59.657Z,1.13
2022-09-13T05:50:10.190Z,1.30
2022-09-13T05:55:13.730Z,1.42
2022-09-13T06:00:17.614Z,2.92
2022-09-13T06:05:20.460Z,2.33
2022-09-13T06:10:23.200Z,2.33
2022-09-13T06:15:25.958Z,1.50
2022-09-13T06:20:28.733Z,1.42
2022-09-13T06:25:34.059Z,4.88
2022-09-13T06:35:39.675Z,2.08
2022-09-13T06:40:43.213Z,2.83
2022-09-13T06:45:45.863Z,3.00
2022-09-13T06:50:48.736Z,3.85
2022-09-13T06:56:07.471Z,2.63
2022-09-13T07:01:15.344Z,0.95
2022-09-13T07:06:23.717Z,2.22
2022-09-13T07:11:32.137Z,1.10
2022-09-13T07:16:37.796Z,1.02
2022-09-13T07:21:40.694Z,1.52
2022-09-13T07:26:43.500Z,1.70
2022-09-13T07:31:48.346Z,1.30
2022-09-13T07:36:51.619Z,1.20
2022-09-13T07:41:56.051Z,5.13
2022-09-13T07:46:58.909Z,0.98
2022-09-13T07:52:01.789Z,1.50
2022-09-13T07:57:04.717Z,1.20
2022-09-13T08:02:09.143Z,2.85
2022-09-13T08:07:12.121Z,6.83
2022-09-13T08:12:14.823Z,2.97
2022-09-13T08:17:17.764Z,3.53
2022-09-13T08:22:20.677Z,3.25
2022-09-13T08:27:23.545Z,2.92
2022-09-13T08:32:26.256Z,3.05
2022-09-13T08:37:29.277Z,2.88
2022-09-13T08:42:34.985Z,6.68
2022-09-13T08:47:57.117Z,1.85
2022-09-13T08:53:19.713Z,2.97
2022-09-13T08:58:57.593Z,3.55
2022-09-13T09:04:27.889Z,4.70
2022-09-13T09:09:36.896Z,1.48
2022-09-13T09:15:02.199Z,1.75
2022-09-13T09:20:37.802Z,6.25
2022-09-13T09:25:43.332Z,2.92
2022-09-13T09:31:07.707Z,3.97
2022-09-13T09:36:26.051Z,3.63
2022-09-13T09:41:37.339Z,4.13
2022-09-13T09:46:41.536Z,3.50
2022-09-13T09:51:45.836Z,2.38
2022-09-13T09:56:55.683Z,1.63
2022-09-13T10:02:18.261Z,3.47
2022-09-13T10:07:26.660Z,1.92
2022-09-13T10:12:33.093Z,1.58
2022-09-13T10:17:35.809Z,1.73
2022-09-13T10:22:38.927Z,3.03
2022-09-13T10:27:50.102Z,4.35
2022-09-13T10:32:57.006Z,2.45
2022-09-13T10:37:59.839Z,1.65
2022-09-13T10:43:05.580Z,2.10
2022-09-13T10:48:15.744Z,2.42
2022-09-13T10:53:34.724Z,2.33
2022-09-13T10:58:37.519Z,4.82
2022-09-13T11:04:00.042Z,3.13
2022-09-13T11:09:11.643Z,2.67
2022-09-13T11:14:24.669Z,3.55
2022-09-13T11:19:52.921Z,2.80
2022-09-13T11:25:22.596Z,1.50
2022-09-13T11:30:29.896Z,2.47
2022-09-13T11:35:53.947Z,1.33
2022-09-13T11:41:31.702Z,4.30
2022-09-13T11:47:09.920Z,3.17
2022-09-13T11:52:18.247Z,4.07
2022-09-13T11:57:53.593Z,4.30
2022-09-13T12:03:04.498Z,4.03
2022-09-13T12:08:15.800Z,8.35
2022-09-13T12:13:25.215Z,9.48
2022-09-13T12:18:36.654Z,4.60
2022-09-13T12:23:47.478Z,6.43
2022-09-13T12:28:55.254Z,13.05
2022-09-13T12:34:01.382Z,7.57
2022-09-13T12:39:27.678Z,12.82
2022-09-13T12:44:54.999Z,8.85
2022-09-13T12:56:00.830Z,13.05
2022-09-13T13:01:26.864Z,14.40
2022-09-13T13:06:47.932Z,16.38
2022-09-13T13:11:52.186Z,9.38
2022-09-13T13:16:55.011Z,10.40
2022-09-13T13:22:36.828Z,12.75
2022-09-13T13:27:47.569Z,13.27
2022-09-13T13:33:17.640Z,11.73
2022-09-13T13:38:32.572Z,20.75
2022-09-13T13:43:36.042Z,15.90
2022-09-13T13:48:41.458Z,11.45
2022-09-13T13:59:00.089Z,11.98
2022-09-13T14:04:40.115Z,20.90
2022-09-13T14:09:56.405Z,22.33
2022-09-13T14:20:20.269Z,19.50
2022-09-13T14:25:25.746Z,16.33
2022-09-13T14:35:38.589Z,20.63
2022-09-13T14:40:41.362Z,27.33
2022-09-13T14:45:51.790Z,24.52
2022-09-13T14:51:14.063Z,17.92
2022-09-13T14:56:29.162Z,14.65
2022-09-13T15:01:34.291Z,15.15
2022-09-13T15:06:42.624Z,14.35
2022-09-13T15:11:54.206Z,13.73
2022-09-13T15:17:13.176Z,16.77
2022-09-13T15:22:22.176Z,23.40
2022-09-13T15:27:31.351Z,19.05
2022-09-13T15:32:40.902Z,9.70
2022-09-13T15:37:43.587Z,13.57
2022-09-13T15:42:48.369Z,15.05
2022-09-13T15:47:52.665Z,19.67
2022-09-13T15:52:56.216Z,20.75
2022-09-13T15:57:58.925Z,16.23
2022-09-13T16:03:01.616Z,12.98
2022-09-13T16:08:04.380Z,19.55
2022-09-13T16:13:07.233Z,11.80
2022-09-13T16:18:10.397Z,12.52
2022-09-13T16:23:13.129Z,14.90
2022-09-13T16:28:19.109Z,12.43
2022-09-13T16:33:22.393Z,11.52
2022-09-13T16:38:25.128Z,10.68
2022-09-13T16:43:28.145Z,11.77
2022-09-13T16:48:31.035Z,15.18
2022-09-13T16:53:34.936Z,38.78
2022-09-13T16:58:43.036Z,40.63
2022-09-13T17:03:45.958Z,39.20
2022-09-13T17:08:54.089Z,38.88
2022-09-13T17:13:57.083Z,44.65
2022-09-13T17:19:04.370Z,40.75
2022-09-13T17:24:13.090Z,37.53
2022-09-13T17:29:16.388Z,34.33
2022-09-13T17:34:19.794Z,34.83
2022-09-13T17:39:22.661Z,34.10
2022-09-13T17:44:25.528Z,36.45
2022-09-13T17:49:28.268Z,31.00
2022-09-13T17:54:30.900Z,32.67
2022-09-13T17:59:34.542Z,33.22
2022-09-13T18:04:37.318Z,31.20
2022-09-13T18:09:40.980Z,35.40
2022-09-13T18:14:43.646Z,35.58
2022-09-13T18:19:47.162Z,26.48
2022-09-13T18:24:50.375Z,29.92
2022-09-13T18:29:53.341Z,30.95
2022-09-13T18:34:56.031Z,24.98
2022-09-13T18:39:58.757Z,28.08
2022-09-13T18:45:01.452Z,24.42
2022-09-13T18:50:09.101Z,21.65
2022-09-13T18:55:14.325Z,16.75
2022-09-13T19:00:17.721Z,14.43
2022-09-13T19:05:20.981Z,17.25
2022-09-13T19:10:23.691Z,19.35
2022-09-13T19:15:26.450Z,16.38
2022-09-13T19:20:29.284Z,20.90
2022-09-13T19:25:35.589Z,20.50
2022-09-13T19:30:39.190Z,21.40
2022-09-13T19:35:41.814Z,24.75
2022-09-13T19:40:44.548Z,22.35
2022-09-13T19:45:56.233Z,18.15
2022-09-13T19:51:06.845Z,18.02
2022-09-13T19:56:12.149Z,25.15
2022-09-13T20:01:17.491Z,27.40
2022-09-13T20:11:26.362Z,24.23
2022-09-13T20:16:32.469Z,19.10
2022-09-13T20:21:36.794Z,23.58
2022-09-13T20:26:39.574Z,21.52
2022-09-13T20:31:42.416Z,25.27
2022-09-13T20:36:45.954Z,19.73
2022-09-13T20:41:50.292Z,24.23
2022-09-13T20:46:53.074Z,24.55
2022-09-13T20:51:55.782Z,27.23
2022-09-13T20:56:58.615Z,21.33
2022-09-13T21:02:01.418Z,23.80
2022-09-13T21:07:22.987Z,24.10
2022-09-13T21:12:25.881Z,19.23
2022-09-13T21:17:28.764Z,20.85
2022-09-13T21:22:32.073Z,19.05
2022-09-13T21:27:34.801Z,19.85
2022-09-13T21:32:37.557Z,19.70
2022-09-13T21:37:40.311Z,19.00
2022-09-13T21:42:43.128Z,16.92
2022-09-13T21:47:45.919Z,20.38
2022-09-13T21:52:48.946Z,19.63
2022-09-13T21:57:52.494Z,17.40
2022-09-13T22:02:55.245Z,18.75
2022-09-13T22:07:58.024Z,16.40
2022-09-13T22:13:01.393Z,14.55
2022-09-13T22:18:04.380Z,14.40
2022-09-13T22:23:07.213Z,19.25
2022-09-13T22:28:09.975Z,13.45
2022-09-13T22:33:12.846Z,14.30
2022-09-13T22:38:16.367Z,17.08
2022-09-13T22:43:19.091Z,16.80
2022-09-13T22:48:23.115Z,15.60
2022-09-13T22:53:27.263Z,16.10
2022-09-13T22:58:30.758Z,16.00
2022-09-13T23:03:35.649Z,16.92
2022-09-13T23:08:39.089Z,16.00
2022-09-13T23:13:42.493Z,17.02
2022-09-13T23:18:45.769Z,14.80
2022-09-13T23:23:49.319Z,13.23
2022-09-13T23:28:57.332Z,14.48
2022-09-13T23:34:03.213Z,17.30
2022-09-13T23:39:08.376Z,16.67
2022-09-13T23:44:11.253Z,11.88
2022-09-13T23:49:14.345Z,15.15
2022-09-13T23:54:17.360Z,14.10
2022-09-13T23:59:20.205Z,14.93
